Time;durP1;ratioP1;P1;durP2;ratioP2;P2;SDS_P1;SDS_P2;PMS_P1;PMS_P2;Temp;Humidity;BMP_temperature;BMP_pressure;BME280_temperature;BME280_humidity;BME280_pressure;Samples;Min_cycle;Max_cycle;Signal;HPM_P1;HPM_P2
2023/04/17 00:00:36;;;;;;;25.63;21.17;;;;;;;9.31;63.30;101297.75;20900650;28;20192;-81
2023/04/17 00:10:38;;;;;;;27.65;21.83;;;;;;;9.60;62.55;101303.16;20832807;28;20274;-83
2023/04/17 00:20:40;;;;;;;28.73;23.37;;;;;;;9.59;62.16;101305.13;20810466;28;20216;-81
2023/04/17 00:30:42;;;;;;;29.63;23.75;;;;;;;9.43;61.87;101295.28;20803050;28;20220;-81
2023/04/17 00:40:45;;;;;;;29.45;24.15;;;;;;;9.34;61.08;101305.59;20794616;28;20228;-82
2023/04/17 00:50:49;;;;;;;27.27;21.97;;;;;;;9.32;60.80;101303.09;20812853;28;20266;-81
2023/04/17 01:00:51;;;;;;;24.80;20.87;;;;;;;9.12;61.74;101297.84;20806827;28;20189;-79
2023/04/17 01:10:53;;;;;;;26.70;21.60;;;;;;;8.83;62.41;101300.88;20876548;28;20266;-80
2023/04/17 01:20:55;;;;;;;25.63;20.98;;;;;;;9.14;60.50;101287.09;20883541;28;20220;-79
2023/04/17 01:30:57;;;;;;;26.33;21.40;;;;;;;8.64;61.85;101292.47;20904501;28;20688;-80
2023/04/17 01:41:08;;;;;;;23.60;20.58;;;;;;;8.67;60.83;101294.66;20900650;28;20246;-80
2023/04/17 01:51:10;;;;;;;28.07;21.43;;;;;;;8.29;63.07;101307.88;20883115;28;20235;-80
2023/04/17 02:01:13;;;;;;;25.48;20.35;;;;;;;8.60;61.90;101304.59;20871432;28;20195;-81
2023/04/17 02:11:15;;;;;;;29.30;23.10;;;;;;;8.79;61.22;101306.28;20909928;28;20219;-82
2023/04/17 02:21:17;;;;;;;24.50;20.57;;;;;;;8.43;61.77;101317.22;20893940;28;20220;-79
2023/04/17 02:31:19;;;;;;;24.90;19.77;;;;;;;8.39;60.67;101318.16;20877935;28;20678;-79
2023/04/17 02:41:21;;;;;;;24.03;20.40;;;;;;;8.48;60.63;101319.13;20923883;28;20218;-79
2023/04/17 02:51:25;;;;;;;25.27;20.27;;;;;;;8.39;60.91;101315.34;20926921;28;20532;-79
2023/04/17 03:01:28;;;;;;;23.73;19.70;;;;;;;7.76;62.64;101318.41;20902753;28;20214;-79
2023/04/17 03:11:31;;;;;;;25.27;21.27;;;;;;;8.49;60.19;101312.38;20822943;28;20298;-80
2023/04/17 03:21:33;;;;;;;28.20;20.20;;;;;;;8.37;60.80;101317.63;20824518;28;20327;-80
2023/04/17 03:31:36;;;;;;;28.20;22.40;;;;;;;8.24;59.86;101321.19;20818655;28;20220;-80
2023/04/17 03:41:38;;;;;;;26.33;21.83;;;;;;;8.21;59.86;101330.22;20832414;28;20192;-83
2023/04/17 03:51:41;;;;;;;28.97;22.37;;;;;;;8.11;60.82;101326.41;20809264;28;20216;-82
2023/04/17 04:01:52;;;;;;;29.53;23.37;;;;;;;8.26;60.14;101332.97;20796644;28;20254;-88
2023/04/17 04:11:57;;;;;;;29.83;23.70;;;;;;;8.06;60.20;101332.09;20802382;28;20228;-80
2023/04/17 04:22:00;;;;;;;31.45;23.30;;;;;;;8.02;60.93;101345.06;20797721;28;20565;-80
2023/04/17 04:32:12;;;;;;;34.37;23.27;;;;;;;7.94;60.50;101353.34;20787825;28;20231;-81
2023/04/17 04:42:20;;;;;;;28.07;22.23;;;;;;;8.51;58.87;101355.13;20810188;28;20593;-79
2023/04/17 04:52:38;;;;;;;30.17;22.17;;;;;;;8.01;59.82;101365.91;20815382;28;20239;-79
2023/04/17 05:02:50;;;;;;;28.97;22.77;;;;;;;8.01;59.96;101365.06;20781013;28;20259;-79
2023/04/17 05:12:57;;;;;;;29.20;21.80;;;;;;;8.13;60.15;101373.94;20791841;28;20503;-81
2023/04/17 05:23:00;;;;;;;31.60;23.63;;;;;;;8.04;60.28;101387.81;20826273;28;20220;-86
2023/04/17 05:33:03;;;;;;;26.80;22.50;;;;;;;8.22;59.33;101405.03;20825017;28;20330;-81
2023/04/17 05:43:16;;;;;;;29.10;22.53;;;;;;;8.49;58.58;101393.97;20796091;28;20466;-81
2023/04/17 05:53:19;;;;;;;28.47;21.97;;;;;;;8.17;59.27;101408.75;20790576;28;20339;-86
2023/04/17 06:03:29;;;;;;;24.60;20.00;;;;;;;7.84;59.33;101407.72;20825305;28;20192;-82
2023/04/17 06:13:41;;;;;;;26.27;19.73;;;;;;;8.26;58.12;101415.41;20898358;28;20709;-81
2023/04/17 06:23:44;;;;;;;28.57;22.10;;;;;;;8.38;58.60;101427.06;20909467;28;20773;-84
2023/04/17 06:33:48;;;;;;;25.33;19.73;;;;;;;7.37;60.62;101422.47;20867948;28;20616;-82
2023/04/17 06:43:52;;;;;;;28.50;21.10;;;;;;;7.89;59.48;101432.97;20881344;28;20192;-82
2023/04/17 06:53:54;;;;;;;24.70;20.83;;;;;;;8.21;58.47;101448.38;20868344;28;20223;-81
2023/04/17 07:03:57;;;;;;;29.87;22.43;;;;;;;7.79;60.12;101452.75;20879093;28;20628;-81
2023/04/17 07:13:59;;;;;;;35.80;27.20;;;;;;;8.25;59.96;101467.16;20890982;28;20211;-82
2023/04/17 07:24:01;;;;;;;28.27;24.50;;;;;;;8.26;59.73;101466.03;20900273;28;20246;-84
2023/04/17 07:34:04;;;;;;;29.43;20.93;;;;;;;8.82;56.15;101477.41;20917648;28;20262;-83
2023/04/17 07:44:06;;;;;;;25.17;20.13;;;;;;;8.76;56.45;101473.03;20907080;28;20199;-81
2023/04/17 07:54:08;;;;;;;25.40;20.93;;;;;;;9.07;55.60;101483.81;20887770;28;20224;-84
2023/04/17 08:04:10;;;;;;;21.50;18.57;;;;;;;9.18;53.80;101485.34;20898991;28;20216;-82
2023/04/17 08:14:14;;;;;;;25.87;19.10;;;;;;;9.18;55.82;101499.44;20891792;28;20223;-82
2023/04/17 08:24:16;;;;;;;21.80;19.40;;;;;;;9.17;55.36;101497.78;20880390;28;20207;-86
2023/04/17 08:34:21;;;;;;;21.00;17.50;;;;;;;9.72;52.37;101495.22;20910633;28;20490;-82
2023/04/17 08:44:23;;;;;;;18.83;14.90;;;;;;;9.78;51.43;101497.66;20920729;28;20184;-86
2023/04/17 08:54:26;;;;;;;16.73;14.10;;;;;;;10.19;49.33;101494.09;20908324;28;20305;-82
2023/04/17 09:04:35;;;;;;;16.70;12.87;;;;;;;10.33;47.64;101503.41;20890533;28;20221;-82
2023/04/17 09:14:38;;;;;;;15.10;12.32;;;;;;;10.47;45.39;101506.22;20835564;28;20267;-82
2023/04/17 09:24:41;;;;;;;17.02;11.27;;;;;;;10.86;42.92;101506.53;20834639;28;20220;-83
2023/04/17 09:34:43;;;;;;;14.37;9.70;;;;;;;10.78;42.54;101518.56;20821249;28;20200;-87
2023/04/17 09:44:47;;;;;;;16.42;10.32;;;;;;;10.97;43.70;101516.47;20832099;28;20197;-82
2023/04/17 09:54:52;;;;;;;11.17;9.00;;;;;;;10.78;43.29;101518.56;20793661;28;20197;-84
2023/04/17 10:04:54;;;;;;;12.02;9.05;;;;;;;10.41;44.96;101518.75;20820373;28;20240;-84
2023/04/17 10:14:56;;;;;;;12.40;8.77;;;;;;;10.60;44.89;101500.59;20790173;28;20204;-82
2023/04/17 10:25:14;;;;;;;12.55;7.50;;;;;;;10.82;43.60;101508.31;20793253;28;20220;-83
2023/04/17 10:35:16;;;;;;;8.48;7.53;;;;;;;10.86;43.51;101492.41;20821739;28;20200;-84
2023/04/17 10:45:19;;;;;;;9.93;7.75;;;;;;;11.71;40.72;101487.03;20814265;28;20208;-83
2023/04/17 10:55:22;;;;;;;8.07;6.78;;;;;;;11.59;39.15;101477.13;20812735;28;20582;-82
2023/04/17 11:05:24;;;;;;;8.95;6.68;;;;;;;12.20;38.76;101478.34;20806452;28;20219;-84
2023/04/17 11:15:28;;;;;;;9.45;7.07;;;;;;;12.11;38.07;101471.78;20882572;28;20196;-82
2023/04/17 11:25:32;;;;;;;7.83;6.37;;;;;;;11.87;40.19;101466.50;20898291;28;20220;-82
2023/04/17 11:35:37;;;;;;;6.97;6.27;;;;;;;11.91;37.44;101461.00;20891205;28;20246;-84
2023/04/17 11:45:41;;;;;;;7.18;6.40;;;;;;;12.54;36.94;101468.34;20889789;28;20208;-83
2023/04/17 11:55:44;;;;;;;10.02;6.63;;;;;;;11.92;34.98;101469.19;20896588;28;20207;-83
2023/04/17 12:05:57;;;;;;;7.68;6.95;;;;;;;13.14;34.74;101459.13;20889516;28;20261;-83
2023/04/17 12:15:59;;;;;;;16.05;7.05;;;;;;;12.26;35.71;101465.75;20886828;28;20203;-83
2023/04/17 12:26:02;;;;;;;9.75;7.70;;;;;;;12.64;34.91;101456.69;20909260;28;20560;-83
2023/04/17 12:36:05;;;;;;;11.45;7.45;;;;;;;13.31;32.51;101451.47;20922517;28;20585;-82
2023/04/17 12:46:07;;;;;;;7.88;6.53;;;;;;;13.56;32.55;101446.94;20899051;28;20220;-83
2023/04/17 12:56:09;;;;;;;9.57;6.57;;;;;;;12.18;31.96;101454.31;20894755;28;20188;-83
2023/04/17 13:06:12;;;;;;;9.07;7.05;;;;;;;12.69;32.64;101448.88;20888844;28;20228;-81
2023/04/17 13:16:14;;;;;;;8.10;6.35;;;;;;;13.03;30.92;101436.78;20896949;28;20481;-84
2023/04/17 13:26:17;;;;;;;7.85;6.78;;;;;;;13.54;31.30;101423.75;20888788;28;20212;-83
2023/04/17 13:36:19;;;;;;;7.50;6.63;;;;;;;13.68;29.77;101421.56;20895487;28;20199;-83
2023/04/17 13:46:21;;;;;;;9.90;6.75;;;;;;;12.78;30.75;101431.06;20889470;28;20250;-81
2023/04/17 13:56:24;;;;;;;10.02;7.25;;;;;;;12.63;32.10;101421.03;20879508;28;20188;-82
2023/04/17 14:06:30;;;;;;;9.38;6.47;;;;;;;13.28;30.06;101403.94;20855227;28;20224;-82
2023/04/17 14:16:32;;;;;;;10.40;6.47;;;;;;;13.34;30.39;101402.56;20806986;28;20196;-83
2023/04/17 14:26:36;;;;;;;7.68;6.32;;;;;;;12.61;31.54;101397.88;20824662;28;20208;-84
2023/04/17 14:36:38;;;;;;;9.40;7.15;;;;;;;14.31;29.33;101382.09;20807110;28;20189;-83
2023/04/17 14:46:40;;;;;;;12.50;6.85;;;;;;;13.00;30.53;101392.09;20809900;28;20239;-83
2023/04/17 14:56:42;;;;;;;10.73;6.57;;;;;;;12.38;31.21;101388.66;20803194;28;20211;-83
2023/04/17 15:06:45;;;;;;;6.45;5.70;;;;;;;12.86;29.96;101374.38;20849551;28;20219;-80
2023/04/17 15:16:47;;;;;;;7.43;6.05;;;;;;;13.04;30.08;101375.25;20889436;28;20597;-80
2023/04/17 15:26:50;;;;;;;7.45;5.80;;;;;;;13.80;28.44;101358.44;20882012;28;20273;-82
2023/04/17 15:36:52;;;;;;;7.80;5.68;;;;;;;13.43;29.66;101365.69;20844406;28;20229;-82
2023/04/17 15:46:54;;;;;;;7.47;6.38;;;;;;;13.33;28.59;101354.72;20875978;28;20572;-81
2023/04/17 15:56:57;;;;;;;9.23;6.10;;;;;;;13.24;28.50;101356.72;20883600;28;20616;-80
2023/04/17 16:06:59;;;;;;;8.48;5.93;;;;;;;13.22;28.76;101350.53;20866328;28;20630;-81
2023/04/17 16:17:02;;;;;;;7.18;5.97;;;;;;;12.60;28.95;101348.03;20880226;28;20188;-82
2023/04/17 16:27:05;;;;;;;5.65;4.55;;;;;;;13.32;27.46;101339.72;20863379;28;20224;-81
2023/04/17 16:37:07;;;;;;;9.05;5.82;;;;;;;12.62;28.32;101328.72;20890261;28;20227;-82
2023/04/17 16:47:09;;;;;;;8.50;5.75;;;;;;;13.19;27.70;101320.88;20881665;28;20266;-81
2023/04/17 16:57:15;;;;;;;8.50;5.93;;;;;;;13.42;28.88;101324.31;20893093;28;20659;-81
2023/04/17 17:07:17;;;;;;;9.52;6.57;;;;;;;13.04;30.65;101336.41;20897804;28;20297;-84
2023/04/17 17:17:19;;;;;;;9.25;6.85;;;;;;;12.88;29.74;101340.88;20912301;28;20192;-84
2023/04/17 17:27:22;;;;;;;11.13;7.63;;;;;;;12.15;30.42;101353.94;20881088;28;20219;-83
2023/04/17 17:37:25;;;;;;;8.07;6.47;;;;;;;12.08;31.74;101352.72;20888186;28;20196;-85
2023/04/17 17:47:27;;;;;;;10.07;6.77;;;;;;;12.11;32.67;101352.06;20875793;28;20224;-84
2023/04/17 17:57:30;;;;;;;12.60;7.43;;;;;;;12.05;32.16;101354.22;20848875;28;20204;-82
2023/04/17 18:07:49;;;;;;;8.85;6.50;;;;;;;12.19;32.26;101352.13;20869289;28;20219;-84
2023/04/17 18:17:51;;;;;;;11.88;7.22;;;;;;;12.41;32.45;101348.34;20855763;28;20196;-82
2023/04/17 18:27:53;;;;;;;7.67;5.70;;;;;;;11.87;34.05;101352.50;20863676;28;20212;-85
2023/04/17 18:37:55;;;;;;;12.73;6.57;;;;;;;11.48;33.15;101356.97;20874826;28;20258;-85
2023/04/17 18:47:57;;;;;;;6.97;5.80;;;;;;;11.15;34.84;101364.00;20867819;28;20219;-83
2023/04/17 18:58:00;;;;;;;14.88;8.40;;;;;;;11.81;33.67;101373.59;20889356;28;20191;-82
2023/04/17 19:08:02;;;;;;;8.37;6.77;;;;;;;10.90;35.93;101373.97;20886863;28;20258;-83
2023/04/17 19:18:05;;;;;;;11.23;9.55;;;;;;;11.58;34.05;101365.16;20896890;28;20216;-82
2023/04/17 19:28:09;;;;;;;10.77;8.02;;;;;;;10.89;36.17;101372.28;20911148;28;20253;-82
2023/04/17 19:38:11;;;;;;;12.23;7.15;;;;;;;10.90;38.23;101376.78;20880160;28;20218;-82
2023/04/17 19:48:17;;;;;;;9.10;7.47;;;;;;;11.14;35.37;101376.47;20895127;28;20601;-84
2023/04/17 19:58:19;;;;;;;8.25;7.45;;;;;;;10.47;36.90;101382.00;20878388;28;20197;-82
2023/04/17 20:08:21;;;;;;;12.02;7.18;;;;;;;10.32;37.61;101388.81;20864365;28;20277;-84
2023/04/17 20:18:24;;;;;;;9.40;7.13;;;;;;;10.41;37.28;101386.09;20877614;28;20227;-83
2023/04/17 20:28:27;;;;;;;10.18;7.47;;;;;;;10.38;38.23;101386.72;20886003;28;20247;-81
2023/04/17 20:38:29;;;;;;;11.43;7.50;;;;;;;10.04;39.94;101396.47;20877621;28;20222;-83
2023/04/17 20:48:32;;;;;;;10.10;8.05;;;;;;;9.55;39.03;101389.47;20894802;28;20215;-83
2023/04/17 20:58:35;;;;;;;8.52;6.53;;;;;;;9.20;38.11;101388.09;20911427;28;20196;-83
2023/04/17 21:08:37;;;;;;;8.37;6.80;;;;;;;10.15;35.47;101391.44;20871285;28;20285;-83
2023/04/17 21:18:39;;;;;;;7.87;5.87;;;;;;;9.88;35.63;101397.91;20900309;28;20460;-83
2023/04/17 21:28:41;;;;;;;9.80;6.67;;;;;;;9.17;38.90;101400.00;20897632;28;20219;-83
2023/04/17 21:38:44;;;;;;;8.02;6.10;;;;;;;8.76;37.29;101405.44;20870051;28;20184;-84
2023/04/17 21:48:46;;;;;;;10.03;6.07;;;;;;;9.21;37.78;101409.50;20869305;28;20273;-83
2023/04/17 21:58:50;;;;;;;9.20;5.82;;;;;;;8.84;36.53;101406.72;20876463;28;20651;-83
2023/04/17 22:08:52;;;;;;;12.43;5.87;;;;;;;8.82;35.54;101414.63;20879261;28;20277;-82
2023/04/17 22:18:54;;;;;;;6.87;5.47;;;;;;;8.12;37.23;101412.47;20873815;28;20216;-81
2023/04/17 22:28:57;;;;;;;7.20;5.70;;;;;;;8.37;36.38;101413.28;20895377;28;20215;-82
2023/04/17 22:39:00;;;;;;;6.30;5.13;;;;;;;7.99;37.16;101416.00;20886851;28;20196;-81
2023/04/17 22:49:04;;;;;;;10.13;4.97;;;;;;;7.90;36.66;101434.63;20876787;28;20620;-82
2023/04/17 22:59:06;;;;;;;8.73;5.10;;;;;;;7.83;35.12;101431.34;20882951;28;20191;-82
2023/04/17 23:09:09;;;;;;;9.23;4.80;;;;;;;8.07;36.17;101435.03;20893564;28;20632;-84
2023/04/17 23:19:11;;;;;;;8.30;5.17;;;;;;;7.58;37.50;101440.00;20890789;28;20219;-83
2023/04/17 23:29:13;;;;;;;9.13;6.10;;;;;;;7.14;38.56;101435.31;20893064;28;20246;-83
2023/04/17 23:39:15;;;;;;;8.10;5.43;;;;;;;6.98;40.11;101447.78;20912461;28;20219;-83
2023/04/17 23:49:17;;;;;;;8.57;6.10;;;;;;;7.40;40.02;101450.84;20880075;28;20726;-83
2023/04/17 23:59:19;;;;;;;7.93;5.67;;;;;;;6.97;44.48;101458.16;20894115;28;20250;-83
